Time;durP1;ratioP1;P1;durP2;ratioP2;P2;SDS_P1;SDS_P2;PMS_P1;PMS_P2;Temp;Humidity;BMP_temperature;BMP_pressure;BME280_temperature;BME280_humidity;BME280_pressure;Samples;Min_cycle;Max_cycle;Signal;HPM_P1;HPM_P2
2023/11/24 00:00:09;;;;;;;4.40;2.70;;;;;;;2.35;67.13;94731.58;106879;1274;24215;-77
2023/11/24 00:03:01;;;;;;;5.70;3.10;;;;;;;2.35;67.88;94728.63;106832;1274;25482;-79
2023/11/24 00:05:29;;;;;;;3.70;2.80;;;;;;;2.36;68.40;94711.10;106781;1274;24148;-77
2023/11/24 00:07:58;;;;;;;4.00;2.70;;;;;;;2.38;68.52;94708.14;106758;1274;22515;-77
2023/11/24 00:10:28;;;;;;;4.60;2.70;;;;;;;2.40;68.77;94720.12;106911;1274;24247;-78
2023/11/24 00:12:57;;;;;;;3.40;2.40;;;;;;;2.38;68.94;94717.34;106815;1274;23749;-78
2023/11/24 00:15:25;;;;;;;3.40;2.20;;;;;;;2.40;68.90;94712.13;106849;1274;22535;-79
2023/11/24 00:17:53;;;;;;;3.40;2.20;;;;;;;2.43;69.23;94705.89;106663;1274;26267;-77
2023/11/24 00:20:25;;;;;;;3.50;2.60;;;;;;;2.47;69.23;94696.15;106786;1274;23890;-79
2023/11/24 00:22:55;;;;;;;4.20;2.40;;;;;;;2.49;69.27;94689.21;106862;1274;25375;-78
2023/11/24 00:25:23;;;;;;;3.00;2.30;;;;;;;2.52;69.40;94685.55;106790;1274;24920;-78
2023/11/24 00:27:54;;;;;;;4.10;2.60;;;;;;;2.54;69.46;94685.02;106659;1274;24102;-78
2023/11/24 00:30:22;;;;;;;3.70;2.40;;;;;;;2.59;69.05;94690.05;106873;1267;24345;-77
2023/11/24 00:32:51;;;;;;;3.60;2.30;;;;;;;2.65;68.51;94691.41;106731;1274;24068;-78
2023/11/24 00:35:20;;;;;;;3.40;2.10;;;;;;;2.67;68.61;94695.58;106629;1274;22516;-77
2023/11/24 00:37:49;;;;;;;3.40;2.30;;;;;;;2.64;68.56;94690.20;106836;1274;22522;-78
2023/11/24 00:40:18;;;;;;;2.90;2.00;;;;;;;2.60;68.78;94679.10;106659;1274;24397;-78
2023/11/24 00:42:46;;;;;;;4.30;2.30;;;;;;;2.62;68.72;94677.20;106937;1274;22727;-77
2023/11/24 00:45:16;;;;;;;3.20;2.30;;;;;;;2.63;68.85;94683.80;106790;1274;25351;-79
2023/11/24 00:47:44;;;;;;;3.20;1.70;;;;;;;2.54;69.63;94663.32;106721;1274;23149;-78
2023/11/24 00:50:13;;;;;;;2.60;2.00;;;;;;;2.53;69.55;94662.98;106809;1270;25245;-78
2023/11/24 00:52:41;;;;;;;4.00;2.80;;;;;;;2.54;69.56;94663.85;106837;1274;22527;-77
2023/11/24 00:55:09;;;;;;;2.40;2.10;;;;;;;2.54;69.63;94655.86;106665;1274;24211;-79
2023/11/24 00:57:37;;;;;;;4.60;2.60;;;;;;;2.53;69.70;94639.02;106777;1274;23013;-78
2023/11/24 01:00:08;;;;;;;2.80;2.10;;;;;;;2.55;69.82;94641.10;106744;1274;22630;-76
2023/11/24 01:02:37;;;;;;;2.60;1.80;;;;;;;2.59;69.92;94630.50;106779;1274;25370;-79
2023/11/24 01:05:08;;;;;;;2.60;1.60;;;;;;;2.65;69.79;94609.29;106768;1274;24417;-77
2023/11/24 01:07:37;;;;;;;2.50;1.90;;;;;;;2.71;69.41;94591.91;106788;1274;23880;-77
2023/11/24 01:10:07;;;;;;;2.10;1.70;;;;;;;2.74;69.21;94581.66;106781;1271;24271;-78
2023/11/24 01:12:36;;;;;;;3.10;2.00;;;;;;;2.73;68.99;94575.06;106761;1274;22545;-78
2023/11/24 01:15:06;;;;;;;2.20;1.70;;;;;;;2.72;68.84;94582.36;106733;1274;22539;-77
2023/11/24 01:17:35;;;;;;;2.60;1.80;;;;;;;2.70;68.79;94575.93;106811;1274;22527;-78
2023/11/24 01:20:05;;;;;;;3.10;1.90;;;;;;;2.69;69.01;94580.11;106820;1274;24278;-78
2023/11/24 01:22:36;;;;;;;2.00;1.40;;;;;;;2.71;68.94;94577.50;106651;1274;22618;-79
2023/11/24 01:25:05;;;;;;;2.50;1.60;;;;;;;2.69;68.92;94565.88;106684;1274;22526;-77
2023/11/24 01:27:33;;;;;;;3.10;1.80;;;;;;;2.71;68.75;94577.51;106807;1274;22530;-77
2023/11/24 01:30:01;;;;;;;2.10;1.70;;;;;;;2.68;68.85;94555.45;106761;1274;25294;-78
2023/11/24 01:32:30;;;;;;;2.60;1.80;;;;;;;2.66;68.83;94555.46;106741;1274;22619;-78
2023/11/24 01:34:58;;;;;;;2.20;1.70;;;;;;;2.70;68.76;94539.46;106866;1274;24211;-78
2023/11/24 01:37:27;;;;;;;2.30;1.70;;;;;;;2.76;68.55;94518.95;106776;1274;22573;-77
2023/11/24 01:39:55;;;;;;;2.20;1.60;;;;;;;2.80;68.12;94493.92;106678;1274;23045;-79
2023/11/24 01:42:24;;;;;;;5.10;1.40;;;;;;;2.87;67.41;94485.52;106876;1274;23393;-78
2023/11/24 01:44:52;;;;;;;1.40;1.20;;;;;;;2.99;66.67;94473.99;106759;1271;24285;-77
2023/11/24 01:47:21;;;;;;;1.70;1.00;;;;;;;3.08;66.27;94474.77;106762;1274;22999;-78
2023/11/24 01:49:49;;;;;;;1.40;1.20;;;;;;;3.17;65.96;94464.27;106781;1274;25572;-78
2023/11/24 01:52:17;;;;;;;1.90;1.40;;;;;;;3.25;65.45;94456.40;106855;1274;22517;-77
2023/11/24 01:54:47;;;;;;;2.60;0.90;;;;;;;3.31;65.22;94447.31;106767;1274;23003;-77
2023/11/24 01:57:16;;;;;;;1.50;1.10;;;;;;;3.40;64.59;94440.79;106777;1274;22813;-77
2023/11/24 01:59:44;;;;;;;1.70;1.10;;;;;;;3.45;64.30;94431.70;106721;1274;25271;-79
2023/11/24 02:02:14;;;;;;;1.30;1.20;;;;;;;3.53;63.77;94427.10;106682;1274;22511;-78
2023/11/24 02:04:43;;;;;;;0.70;0.50;;;;;;;3.61;63.40;94411.89;106639;1274;22644;-76
2023/11/24 02:07:12;;;;;;;1.00;0.70;;;;;;;3.70;62.50;94415.61;106781;1274;22535;-78
2023/11/24 02:09:41;;;;;;;1.00;0.90;;;;;;;3.78;61.96;94407.35;106730;1274;24219;-77
2023/11/24 02:12:09;;;;;;;1.00;0.80;;;;;;;3.81;62.11;94396.88;106752;1274;22520;-78
2023/11/24 02:14:38;;;;;;;1.10;0.80;;;;;;;3.84;61.60;94391.63;106672;1274;22811;-77
2023/11/24 02:17:06;;;;;;;0.50;0.50;;;;;;;3.90;61.52;94384.42;106619;1275;22818;-77
2023/11/24 02:19:35;;;;;;;1.30;0.60;;;;;;;3.97;60.86;94379.81;106654;1274;25249;-78
2023/11/24 02:22:03;;;;;;;0.80;0.70;;;;;;;4.04;60.28;94361.44;106695;1274;22646;-77
2023/11/24 02:24:31;;;;;;;0.90;0.50;;;;;;;4.15;59.53;94371.39;106791;1263;24221;-79
2023/11/24 02:26:59;;;;;;;0.40;0.40;;;;;;;4.20;59.23;94364.90;106642;1274;23246;-76
2023/11/24 02:29:27;;;;;;;0.70;0.60;;;;;;;4.27;58.77;94360.95;106707;1274;22521;-77
2023/11/24 02:31:55;;;;;;;0.40;0.40;;;;;;;4.37;58.67;94333.65;106637;1274;22541;-78
2023/11/24 02:34:24;;;;;;;0.90;0.30;;;;;;;4.50;57.92;94333.63;106709;1274;22653;-77
2023/11/24 02:36:52;;;;;;;1.30;0.50;;;;;;;4.60;58.21;94320.06;106738;1274;25366;-76
2023/11/24 02:39:20;;;;;;;0.90;0.50;;;;;;;4.72;57.48;94328.23;106653;1274;22539;-77
2023/11/24 02:41:48;;;;;;;0.70;0.50;;;;;;;4.85;56.61;94326.09;106696;1274;25447;-78
2023/11/24 02:44:16;;;;;;;0.40;0.40;;;;;;;4.95;56.26;94324.34;106804;1274;22513;-78
2023/11/24 02:46:45;;;;;;;0.70;0.60;;;;;;;4.97;56.45;94323.62;106688;1253;25507;-77
2023/11/24 02:49:13;;;;;;;0.50;0.50;;;;;;;5.00;56.30;94327.77;106857;1274;22605;-77
2023/11/24 02:51:41;;;;;;;1.00;0.60;;;;;;;5.02;56.88;94330.34;107090;1274;25325;-77
2023/11/24 02:54:10;;;;;;;0.70;0.60;;;;;;;5.00;56.63;94325.66;106954;1274;24219;-77
2023/11/24 02:56:38;;;;;;;0.50;0.40;;;;;;;4.99;56.98;94318.02;106734;1274;24343;-77
2023/11/24 02:59:06;;;;;;;0.90;0.80;;;;;;;4.97;57.41;94316.67;106731;1274;22609;-77
2023/11/24 03:01:36;;;;;;;0.60;0.60;;;;;;;4.92;57.88;94313.08;106757;1274;22517;-78
2023/11/24 03:04:05;;;;;;;0.70;0.60;;;;;;;4.91;57.92;94306.66;106884;1274;22531;-76
2023/11/24 03:06:40;;;;;;;1.10;0.90;;;;;;;4.89;58.14;94297.29;106633;1274;25386;-77
2023/11/24 03:09:09;;;;;;;0.80;0.80;;;;;;;4.85;58.77;94291.43;106850;1274;22521;-77
2023/11/24 03:11:38;;;;;;;1.50;0.90;;;;;;;4.82;59.02;94297.23;106862;1274;24343;-76
2023/11/24 03:14:07;;;;;;;3.70;0.80;;;;;;;4.81;58.91;94291.86;106683;1274;24033;-78
2023/11/24 03:16:35;;;;;;;0.90;0.80;;;;;;;4.82;58.67;94304.55;106779;1274;22535;-78
2023/11/24 03:19:04;;;;;;;1.60;0.90;;;;;;;4.86;58.06;94297.16;106814;1274;23013;-77
2023/11/24 03:21:32;;;;;;;1.10;0.70;;;;;;;4.85;58.05;94291.42;106815;1274;23880;-78
2023/11/24 03:24:01;;;;;;;1.40;0.90;;;;;;;4.84;58.24;94277.33;106981;1274;25620;-77
2023/11/24 03:26:29;;;;;;;0.90;0.60;;;;;;;4.79;58.54;94271.50;106778;1274;22536;-77
2023/11/24 03:28:58;;;;;;;1.70;0.80;;;;;;;4.75;58.69;94272.80;106774;1274;24392;-77
2023/11/24 03:31:26;;;;;;;1.00;0.90;;;;;;;4.70;59.22;94272.17;106763;1274;25488;-78
2023/11/24 03:33:54;;;;;;;1.70;1.10;;;;;;;4.60;59.57;94270.95;106826;1274;25500;-78
2023/11/24 03:36:22;;;;;;;1.50;1.00;;;;;;;4.47;61.06;94265.25;106733;1274;22527;-78
2023/11/24 03:38:51;;;;;;;1.50;1.10;;;;;;;4.35;61.39;94272.77;106712;1274;22520;-79
2023/11/24 03:41:19;;;;;;;0.70;0.70;;;;;;;4.35;60.44;94264.40;106743;1274;22650;-79
2023/11/24 03:43:47;;;;;;;0.90;0.80;;;;;;;4.32;60.83;94260.80;106816;1274;23918;-79
2023/11/24 03:46:17;;;;;;;0.80;0.60;;;;;;;4.31;60.74;94250.01;106684;1274;25414;-77
2023/11/24 03:48:45;;;;;;;0.60;0.60;;;;;;;4.39;60.25;94246.93;106787;1274;25501;-78
2023/11/24 03:51:19;;;;;;;0.80;0.70;;;;;;;4.52;59.70;94244.10;106817;1274;22592;-78
2023/11/24 03:53:48;;;;;;;1.00;0.90;;;;;;;4.56;59.70;94240.36;106852;1274;22545;-79
2023/11/24 03:56:17;;;;;;;1.10;0.70;;;;;;;4.57;58.97;94244.73;106701;1274;25013;-78
2023/11/24 03:58:47;;;;;;;0.90;0.70;;;;;;;4.66;58.06;94233.42;106800;1253;24347;-78
2023/11/24 04:01:15;;;;;;;0.70;0.60;;;;;;;4.71;57.70;94241.15;106654;1274;22517;-77
2023/11/24 04:03:47;;;;;;;1.20;0.80;;;;;;;4.78;57.67;94232.15;106764;1274;22511;-77
2023/11/24 04:06:16;;;;;;;0.70;0.70;;;;;;;4.86;56.96;94234.44;106814;1274;22572;-78
2023/11/24 04:08:44;;;;;;;1.90;1.40;;;;;;;4.85;57.40;94233.42;106666;1274;22531;-79
2023/11/24 04:11:12;;;;;;;0.70;0.70;;;;;;;4.81;57.55;94235.94;106808;1274;22528;-79
2023/11/24 04:13:40;;;;;;;149.10;59.50;;;;;;;4.78;57.75;94237.02;106827;1274;22526;-78
2023/11/24 04:16:08;;;;;;;27.70;15.00;;;;;;;4.75;61.86;94228.55;106716;1274;25342;-77
2023/11/24 04:18:36;;;;;;;6.20;3.00;;;;;;;4.75;62.56;94221.39;106794;1274;22617;-76
2023/11/24 04:21:06;;;;;;;3.60;2.30;;;;;;;4.69;60.24;94210.71;107121;1274;22533;-75
2023/11/24 04:23:34;;;;;;;2.50;2.10;;;;;;;4.62;60.49;94204.05;106628;1274;25413;-76
2023/11/24 04:26:02;;;;;;;14.60;11.40;;;;;;;4.52;60.81;94200.56;106762;1274;25422;-76
2023/11/24 04:28:30;;;;;;;8.30;6.40;;;;;;;4.43;61.30;94193.94;106853;1274;24397;-75
2023/11/24 04:30:58;;;;;;;1.20;1.00;;;;;;;4.37;61.65;94190.73;106776;1274;22653;-75
2023/11/24 04:33:27;;;;;;;0.70;0.60;;;;;;;4.38;61.77;94190.70;106843;1274;25341;-76
2023/11/24 04:35:55;;;;;;;20.20;15.80;;;;;;;4.35;62.04;94186.59;106697;1274;25291;-76
2023/11/24 04:38:23;;;;;;;1.20;1.10;;;;;;;4.28;62.31;94181.66;106807;1272;22544;-76
2023/11/24 04:40:52;;;;;;;1.40;0.80;;;;;;;4.26;62.39;94182.20;106655;1274;22652;-75
2023/11/24 04:43:24;;;;;;;0.90;0.70;;;;;;;4.27;62.41;94172.09;106773;1274;22535;-75
2023/11/24 04:45:52;;;;;;;2.20;2.00;;;;;;;4.26;62.51;94164.98;106749;1274;22533;-75
2023/11/24 04:48:21;;;;;;;0.70;0.70;;;;;;;4.24;62.71;94167.28;106720;1274;23952;-75
2023/11/24 04:50:49;;;;;;;0.90;0.80;;;;;;;4.23;62.70;94159.48;106835;1274;23905;-75
2023/11/24 04:53:19;;;;;;;1.50;1.00;;;;;;;4.20;62.84;94148.38;106746;1274;22656;-75
2023/11/24 04:55:47;;;;;;;2.20;2.00;;;;;;;4.17;63.23;94151.04;106760;1274;22521;-75
2023/11/24 04:58:15;;;;;;;3.40;1.70;;;;;;;4.14;63.44;94153.17;107032;1274;22643;-75
2023/11/24 05:00:43;;;;;;;1.80;0.90;;;;;;;4.18;63.39;94151.55;106918;1272;24292;-76
2023/11/24 05:03:12;;;;;;;1.30;1.10;;;;;;;4.18;63.39;94143.72;106899;1274;24220;-75
2023/11/24 05:05:40;;;;;;;1.40;1.20;;;;;;;4.17;63.47;94129.98;106755;1274;25211;-74
2023/11/24 05:08:08;;;;;;;1.20;0.80;;;;;;;4.13;64.09;94146.92;106675;1274;22520;-75
2023/11/24 05:10:36;;;;;;;1.90;1.40;;;;;;;4.15;64.87;94138.88;106952;1274;22595;-75
2023/11/24 05:13:05;;;;;;;8.70;7.80;;;;;;;4.16;65.35;94143.58;106783;1274;22570;-76
2023/11/24 05:15:34;;;;;;;5.90;5.20;;;;;;;4.14;65.83;94148.14;106762;1253;24219;-74
2023/11/24 05:18:04;;;;;;;16.20;9.20;;;;;;;4.11;66.10;94154.10;106788;1274;22649;-74
2023/11/24 05:20:32;;;;;;;16.10;8.90;;;;;;;4.07;66.52;94169.84;106701;1274;24283;-75
2023/11/24 05:23:00;;;;;;;6.60;5.30;;;;;;;3.99;67.61;94169.61;106760;1274;22520;-75
2023/11/24 05:25:28;;;;;;;3.20;2.40;;;;;;;3.98;67.86;94179.02;106756;1274;22577;-75
2023/11/24 05:27:56;;;;;;;2.80;2.50;;;;;;;3.96;68.53;94183.05;106705;1266;22543;-75
2023/11/24 05:30:25;;;;;;;10.50;6.20;;;;;;;3.95;69.03;94170.21;106841;1274;22598;-75
2023/11/24 05:32:53;;;;;;;3.40;3.00;;;;;;;3.93;69.16;94173.54;106986;1274;22534;-75
2023/11/24 05:35:21;;;;;;;3.80;2.60;;;;;;;3.88;69.84;94173.77;106753;1274;23346;-75
2023/11/24 05:37:49;;;;;;;4.40;3.00;;;;;;;3.87;70.43;94167.36;106739;1274;22531;-74
2023/11/24 05:40:18;;;;;;;3.10;2.00;;;;;;;3.84;70.71;94165.34;106753;1263;25618;-76
2023/11/24 05:42:46;;;;;;;2.40;1.80;;;;;;;3.84;70.79;94166.19;106756;1274;25453;-75
2023/11/24 05:45:15;;;;;;;2.60;1.60;;;;;;;3.82;71.12;94159.27;106715;1274;25246;-74
2023/11/24 05:47:43;;;;;;;17.70;9.90;;;;;;;3.82;71.32;94157.70;106639;1274;22536;-75
2023/11/24 05:50:17;;;;;;;4.50;3.40;;;;;;;3.80;71.25;94161.39;106762;1274;25297;-75
2023/11/24 05:52:45;;;;;;;4.00;3.40;;;;;;;3.80;71.40;94146.61;106764;1264;24353;-75
2023/11/24 05:55:15;;;;;;;4.40;2.80;;;;;;;3.81;70.87;94139.64;106746;1273;24563;-75
2023/11/24 05:57:43;;;;;;;7.10;4.40;;;;;;;3.84;70.53;94141.33;106632;1274;22523;-75
2023/11/24 06:00:16;;;;;;;4.30;3.10;;;;;;;3.86;70.46;94138.51;106836;1274;22603;-78
2023/11/24 06:02:45;;;;;;;7.00;5.50;;;;;;;3.89;70.63;94146.80;106902;1274;22920;-77
2023/11/24 06:05:15;;;;;;;6.50;3.30;;;;;;;3.92;70.70;94139.80;106826;1274;22530;-76
2023/11/24 06:07:44;;;;;;;7.40;6.00;;;;;;;3.96;70.68;94126.85;106883;1274;24241;-78
2023/11/24 06:10:16;;;;;;;6.80;4.70;;;;;;;4.01;70.43;94126.60;106821;1274;22513;-78
2023/11/24 06:12:44;;;;;;;4.30;3.00;;;;;;;4.08;70.15;94123.52;106964;1274;23146;-75
2023/11/24 06:15:13;;;;;;;3.20;2.70;;;;;;;4.16;69.76;94120.42;106953;1274;22652;-76
2023/11/24 06:17:42;;;;;;;3.20;2.80;;;;;;;4.25;69.18;94120.29;107094;1274;22531;-77
2023/11/24 06:20:11;;;;;;;2.70;2.40;;;;;;;4.33;68.90;94127.44;109285;1274;22490;-78
2023/11/24 06:22:39;;;;;;;3.30;3.00;;;;;;;4.42;68.93;94133.90;107166;1274;22527;-77
2023/11/24 06:25:10;;;;;;;3.90;2.70;;;;;;;4.49;69.08;94123.48;106801;1274;25242;-81
2023/11/24 06:27:43;;;;;;;3.80;3.10;;;;;;;4.50;69.44;94108.31;106878;1274;22557;-77
2023/11/24 06:30:13;;;;;;;4.20;3.40;;;;;;;4.50;69.22;94107.95;106870;1274;22553;-77
2023/11/24 06:32:41;;;;;;;4.20;3.30;;;;;;;4.49;69.72;94109.38;106806;1274;22641;-78
2023/11/24 06:35:10;;;;;;;3.00;2.70;;;;;;;4.49;69.58;94109.73;106928;1274;22514;-77
2023/11/24 06:37:40;;;;;;;4.40;3.70;;;;;;;4.51;69.55;94111.77;106836;1274;25326;-78
2023/11/24 06:40:11;;;;;;;5.70;4.50;;;;;;;4.52;69.53;94105.67;107001;1274;22593;-77
2023/11/24 06:42:40;;;;;;;3.00;2.50;;;;;;;4.51;69.71;94107.77;107175;1274;25268;-77
2023/11/24 06:45:12;;;;;;;3.30;2.80;;;;;;;4.51;69.53;94105.50;110055;1274;25287;-76
2023/11/24 06:47:41;;;;;;;4.10;3.20;;;;;;;4.54;69.79;94107.55;106762;1274;23802;-77
2023/11/24 06:50:13;;;;;;;2.90;2.60;;;;;;;4.56;69.60;94109.42;106731;1266;24994;-78
2023/11/24 06:52:42;;;;;;;3.80;3.20;;;;;;;4.59;69.92;94098.91;106767;1274;22628;-77
2023/11/24 06:55:11;;;;;;;3.30;2.90;;;;;;;4.61;69.97;94091.05;106776;1274;22564;-78
2023/11/24 06:57:39;;;;;;;3.00;2.50;;;;;;;4.64;69.85;94096.58;106540;1274;305756;-81
2023/11/24 07:00:09;;;;;;;5.30;3.90;;;;;;;4.65;70.24;94088.16;106990;1274;22632;-78
2023/11/24 07:02:38;;;;;;;3.90;3.30;;;;;;;4.67;70.88;94087.80;108446;1274;26498;-79
2023/11/24 07:05:09;;;;;;;4.40;3.80;;;;;;;4.68;71.45;94089.50;107058;1274;22519;-82
2023/11/24 07:07:38;;;;;;;12.00;8.10;;;;;;;4.70;72.18;94095.05;106796;1274;24369;-79
2023/11/24 07:10:07;;;;;;;12.70;7.70;;;;;;;4.68;72.50;94099.77;106944;1274;22664;-79
2023/11/24 07:12:35;;;;;;;11.70;8.90;;;;;;;4.68;72.76;94110.92;106942;1274;22666;-80
2023/11/24 07:15:04;;;;;;;11.70;7.80;;;;;;;4.67;73.08;94108.67;106827;1274;22649;-79
2023/11/24 07:17:32;;;;;;;6.00;4.10;;;;;;;4.65;73.94;94105.75;107099;1274;24339;-79
2023/11/24 07:20:03;;;;;;;21.10;12.40;;;;;;;4.64;74.54;94106.47;107219;1274;22584;-79
2023/11/24 07:22:31;;;;;;;9.40;6.20;;;;;;;4.64;74.77;94104.91;106945;1274;22734;-79
2023/11/24 07:24:59;;;;;;;6.60;5.10;;;;;;;4.61;76.16;94104.45;106870;1274;22539;-79
2023/11/24 07:27:28;;;;;;;8.60;6.30;;;;;;;4.58;75.20;94097.89;106842;1274;23916;-78
2023/11/24 07:29:59;;;;;;;4.40;3.70;;;;;;;4.54;75.18;94089.25;106913;1274;24209;-79
2023/11/24 07:32:29;;;;;;;2.10;1.60;;;;;;;4.48;75.93;94089.88;106782;1274;24479;-78
2023/11/24 07:34:57;;;;;;;2.60;2.10;;;;;;;4.38;76.64;94078.95;106799;1274;25249;-78
2023/11/24 07:37:28;;;;;;;5.20;4.00;;;;;;;4.24;77.23;94086.17;106929;1274;22646;-80
2023/11/24 07:39:57;;;;;;;14.90;10.20;;;;;;;4.18;78.49;94087.85;106858;1274;25329;-77
2023/11/24 07:42:25;;;;;;;3.10;2.50;;;;;;;4.14;78.97;94078.34;106813;1274;22523;-80
2023/11/24 07:44:53;;;;;;;1.70;1.40;;;;;;;4.14;78.88;94073.48;106916;1274;22531;-80
2023/11/24 07:47:23;;;;;;;2.30;2.00;;;;;;;4.13;78.81;94074.36;106844;1274;24198;-80
2023/11/24 07:49:53;;;;;;;2.50;1.90;;;;;;;4.16;79.20;94071.35;106759;1274;22639;-78
2023/11/24 07:52:21;;;;;;;3.30;2.10;;;;;;;4.20;78.96;94068.14;106828;1274;25256;-79
2023/11/24 07:54:50;;;;;;;1.70;1.60;;;;;;;4.23;79.11;94063.74;106850;1274;25350;-80
2023/11/24 07:57:18;;;;;;;3.00;1.40;;;;;;;4.25;79.07;94069.79;106916;1274;22546;-79
2023/11/24 07:59:46;;;;;;;18.30;11.90;;;;;;;4.24;80.28;94063.03;106986;1274;23387;-79
2023/11/24 08:02:15;;;;;;;2.20;1.50;;;;;;;4.24;80.54;94061.45;106898;1274;24388;-78
2023/11/24 08:04:43;;;;;;;3.90;3.20;;;;;;;4.23;80.10;94047.55;107051;1274;24221;-78
2023/11/24 08:07:11;;;;;;;2.70;2.40;;;;;;;4.25;79.97;94041.94;107035;1274;22539;-79
2023/11/24 08:09:40;;;;;;;1.50;1.20;;;;;;;4.28;80.31;94038.93;106882;1274;23033;-78
2023/11/24 08:12:08;;;;;;;1.30;1.10;;;;;;;4.30;80.20;94036.80;106898;1274;24425;-79
2023/11/24 08:14:41;;;;;;;2.10;1.50;;;;;;;4.36;80.24;94030.07;107140;1274;22956;-78
2023/11/24 08:17:09;;;;;;;1.20;0.80;;;;;;;4.39;79.69;94027.91;107184;1274;24228;-79
2023/11/24 08:19:37;;;;;;;1.30;0.80;;;;;;;4.43;79.14;94034.61;106956;1274;25248;-79
2023/11/24 08:22:05;;;;;;;1.10;1.00;;;;;;;4.43;79.26;94033.94;106839;1274;25226;-77
2023/11/24 08:24:34;;;;;;;0.90;0.80;;;;;;;4.47;79.26;94028.30;106765;1274;22536;-79
2023/11/24 08:27:04;;;;;;;1.40;0.90;;;;;;;4.52;79.21;94041.24;106806;1274;22805;-79
2023/11/24 08:29:32;;;;;;;1.10;1.00;;;;;;;4.58;79.74;94039.90;106775;1274;24228;-79
2023/11/24 08:32:01;;;;;;;1.20;0.80;;;;;;;4.62;80.88;94037.04;106783;1274;23041;-77
2023/11/24 08:34:29;;;;;;;2.40;1.70;;;;;;;4.70;80.61;94032.15;106846;1274;22562;-78
2023/11/24 08:37:00;;;;;;;2.00;1.40;;;;;;;4.79;80.32;94027.95;106802;1267;24269;-79
2023/11/24 08:39:28;;;;;;;0.90;0.80;;;;;;;4.87;80.71;94020.30;106837;1274;24383;-78
2023/11/24 08:41:56;;;;;;;1.40;1.00;;;;;;;4.93;80.23;94015.11;106817;1256;24209;-80
2023/11/24 08:44:24;;;;;;;1.10;1.00;;;;;;;4.98;80.11;94007.31;106809;1274;22533;-79
2023/11/24 08:46:53;;;;;;;1.30;1.00;;;;;;;4.96;79.23;94002.67;106823;1274;22527;-79
2023/11/24 08:49:22;;;;;;;2.40;2.10;;;;;;;4.97;80.55;93996.37;106670;1274;25310;-79
2023/11/24 08:51:50;;;;;;;13.70;7.80;;;;;;;5.00;80.97;93994.21;106809;1274;22644;-78
2023/11/24 08:54:18;;;;;;;2.40;1.50;;;;;;;4.98;79.88;93996.70;106827;1274;24204;-78
2023/11/24 08:56:46;;;;;;;1.20;0.80;;;;;;;4.96;79.85;93991.35;106919;1274;22520;-79
2023/11/24 08:59:14;;;;;;;5.00;3.30;;;;;;;4.95;80.77;93991.71;106747;1274;22542;-79
2023/11/24 09:01:43;;;;;;;2.10;1.50;;;;;;;4.92;80.50;93988.30;106830;1274;22723;-78
2023/11/24 09:04:13;;;;;;;3.00;1.90;;;;;;;4.92;79.96;93978.56;106736;1274;26634;-77
2023/11/24 09:06:41;;;;;;;2.50;1.80;;;;;;;4.86;79.78;93970.14;106777;1274;22541;-78
2023/11/24 09:09:12;;;;;;;6.50;3.40;;;;;;;4.80;80.54;93966.46;106869;1274;22572;-78
2023/11/24 09:11:40;;;;;;;8.30;5.00;;;;;;;4.78;80.43;93961.77;106801;1274;24248;-78
2023/11/24 09:14:09;;;;;;;3.80;2.30;;;;;;;4.78;80.27;93956.91;106835;1274;24355;-78
2023/11/24 09:16:38;;;;;;;5.00;2.90;;;;;;;4.75;80.14;93958.70;106902;1274;25303;-76
2023/11/24 09:19:06;;;;;;;6.40;3.60;;;;;;;4.79;80.46;93950.27;106796;1274;22527;-76
2023/11/24 09:21:34;;;;;;;14.20;6.90;;;;;;;4.85;80.01;93942.81;106695;1275;25434;-78
2023/11/24 09:24:04;;;;;;;2.60;1.50;;;;;;;4.87;80.11;93944.85;106938;1274;24403;-77
2023/11/24 09:26:32;;;;;;;22.20;11.10;;;;;;;4.88;80.20;93935.06;106964;1274;22638;-77
2023/11/24 09:29:01;;;;;;;41.60;20.30;;;;;;;4.88;80.08;93929.32;106857;1271;24465;-77
2023/11/24 09:31:30;;;;;;;5.70;3.70;;;;;;;4.92;79.58;93921.77;106853;1272;22717;-79
2023/11/24 09:33:59;;;;;;;6.40;3.60;;;;;;;4.91;79.41;93938.31;106695;1257;24209;-78
2023/11/24 09:36:27;;;;;;;4.00;2.80;;;;;;;4.90;79.40;93945.65;106721;1272;23358;-80
2023/11/24 09:38:55;;;;;;;4.20;2.90;;;;;;;4.86;79.75;93940.17;107053;1270;22534;-79
2023/11/24 09:41:24;;;;;;;9.40;5.30;;;;;;;4.82;80.18;93941.14;107198;1274;22534;-79
2023/11/24 09:43:52;;;;;;;20.20;12.70;;;;;;;4.80;80.35;93942.41;107200;1274;24595;-79
2023/11/24 09:46:21;;;;;;;6.40;4.00;;;;;;;4.82;80.29;93945.88;106788;1274;22535;-79
2023/11/24 09:48:50;;;;;;;5.40;3.30;;;;;;;4.81;80.02;93942.39;106887;1261;24221;-79
2023/11/24 09:51:18;;;;;;;7.50;5.10;;;;;;;4.77;80.07;93940.02;107004;1274;22636;-78
2023/11/24 09:53:47;;;;;;;4.80;3.00;;;;;;;4.77;80.21;93934.10;106878;1274;22539;-77
2023/11/24 09:56:15;;;;;;;4.50;3.50;;;;;;;4.75;80.13;93931.02;106900;1274;24399;-78
2023/11/24 09:58:43;;;;;;;4.10;2.70;;;;;;;4.70;80.10;93924.15;106690;1275;22514;-79
2023/11/24 10:01:19;;;;;;;5.50;3.90;;;;;;;4.67;80.06;93920.60;106770;1275;22539;-80
2023/11/24 10:03:51;;;;;;;5.50;3.10;;;;;;;4.60;80.59;93916.55;106795;1275;25342;-79
2023/11/24 10:06:20;;;;;;;4.40;3.40;;;;;;;4.62;80.56;93918.27;106704;1275;24284;-78
2023/11/24 10:08:48;;;;;;;4.90;3.30;;;;;;;4.58;80.52;93930.56;106700;1275;22538;-78
2023/11/24 10:11:27;;;;;;;3.80;2.50;;;;;;;4.49;80.25;93926.73;106896;1275;22513;-76
2023/11/24 10:13:56;;;;;;;3.90;3.20;;;;;;;4.42;80.25;93914.86;106834;1275;24303;-78
2023/11/24 10:16:27;;;;;;;4.80;3.00;;;;;;;4.38;80.77;93911.48;106699;1275;22537;-76
2023/11/24 10:18:55;;;;;;;4.60;2.60;;;;;;;4.37;80.89;93910.98;106663;1275;22823;-76
2023/11/24 10:21:28;;;;;;;5.30;3.60;;;;;;;4.37;81.01;93913.59;106550;1275;22513;-77
2023/11/24 10:24:02;;;;;;;5.30;3.60;;;;;;;4.40;81.05;93912.30;106698;1275;24369;-77
2023/11/24 10:26:31;;;;;;;5.90;3.70;;;;;;;4.37;80.84;93908.73;107003;1275;22639;-78
2023/11/24 10:28:59;;;;;;;4.60;3.60;;;;;;;4.35;81.14;93908.58;107078;1275;22534;-78
2023/11/24 10:31:30;;;;;;;7.10;3.10;;;;;;;4.38;80.79;93900.17;107046;1275;25287;-78
2023/11/24 10:33:59;;;;;;;6.30;4.20;;;;;;;4.40;80.77;93902.91;106843;1275;25528;-76
2023/11/24 10:36:29;;;;;;;5.60;4.30;;;;;;;4.46;80.65;93896.67;106798;1275;24364;-77
2023/11/24 10:39:02;;;;;;;5.20;3.70;;;;;;;4.53;80.62;93901.73;107050;1275;25253;-79
2023/11/24 10:41:34;;;;;;;4.80;3.40;;;;;;;4.60;80.07;93893.77;106989;1275;25428;-79
2023/11/24 10:44:03;;;;;;;4.90;2.90;;;;;;;4.62;79.92;93890.75;106629;1275;22605;-77
2023/11/24 10:46:36;;;;;;;5.80;3.90;;;;;;;4.70;79.98;93881.16;106718;1275;22533;-77
2023/11/24 10:49:12;;;;;;;5.90;3.70;;;;;;;4.79;79.39;93874.84;106811;1275;24410;-76
2023/11/24 10:51:59;;;;;;;4.20;3.10;;;;;;;4.84;79.00;93859.73;106683;1275;24694;-76
2023/11/24 10:54:38;;;;;;;5.90;3.60;;;;;;;4.90;78.72;93854.37;106595;1275;22554;-75
2023/11/24 10:57:08;;;;;;;5.20;3.40;;;;;;;5.07;79.03;93847.16;106566;1275;22669;-75
2023/11/24 10:59:38;;;;;;;3.90;3.10;;;;;;;5.37;78.01;93843.59;106573;1275;22548;-76
2023/11/24 11:02:10;;;;;;;5.30;3.80;;;;;;;5.48;76.91;93849.21;106663;1275;25301;-75
2023/11/24 11:04:59;;;;;;;5.00;3.60;;;;;;;5.41;76.36;93837.54;106691;1275;22550;-75
2023/11/24 11:07:52;;;;;;;7.60;4.80;;;;;;;5.35;75.90;93839.63;106961;1275;22653;-75
2023/11/24 11:10:28;;;;;;;8.80;4.90;;;;;;;5.52;75.78;93831.66;106739;1275;24210;-77
2023/11/24 11:12:59;;;;;;;7.00;4.20;;;;;;;5.62;74.88;93820.23;106723;1275;24254;-76
2023/11/24 11:15:31;;;;;;;3.70;2.90;;;;;;;5.64;74.67;93821.92;106818;1275;22635;-75
2023/11/24 11:18:07;;;;;;;5.20;3.60;;;;;;;5.64;73.63;93819.46;107020;1275;25316;-75
2023/11/24 11:20:40;;;;;;;8.60;4.50;;;;;;;5.51;74.35;93828.53;106710;1275;22544;-76
2023/11/24 11:23:09;;;;;;;4.80;3.60;;;;;;;5.29;74.32;93837.86;106809;1275;22669;-76
2023/11/24 11:25:39;;;;;;;4.80;3.80;;;;;;;5.15;74.73;93843.27;106646;1275;22536;-76
2023/11/24 11:28:17;;;;;;;14.50;8.90;;;;;;;5.10;75.12;93847.94;106731;1275;25306;-75
2023/11/24 11:30:46;;;;;;;6.80;4.10;;;;;;;5.02;75.05;93857.38;106716;1275;22736;-76
2023/11/24 11:33:20;;;;;;;10.80;5.80;;;;;;;4.91;75.58;93851.73;106722;1275;22539;-76
2023/11/24 11:35:58;;;;;;;4.80;3.80;;;;;;;4.82;75.83;93859.45;106728;1275;22613;-76
2023/11/24 11:38:43;;;;;;;8.40;5.10;;;;;;;4.89;76.04;93855.97;106695;1275;25372;-76
2023/11/24 11:41:36;;;;;;;5.70;3.70;;;;;;;4.97;75.66;93864.65;106798;1265;22575;-76